createdAt,value
2023-02-27T00:01:09.896Z,2.40
2023-02-27T00:03:43.833Z,2.23
2023-02-27T00:06:19.628Z,2.30
2023-02-27T00:08:53.542Z,2.57
2023-02-27T00:11:27.761Z,2.30
2023-02-27T00:14:01.811Z,2.30
2023-02-27T00:16:36.208Z,2.23
2023-02-27T00:19:10.167Z,2.17
2023-02-27T00:21:45.835Z,2.37
2023-02-27T00:24:19.777Z,2.40
2023-02-27T00:26:53.653Z,1.80
2023-02-27T00:29:27.974Z,2.40
2023-02-27T00:32:01.526Z,2.03
2023-02-27T00:34:35.386Z,2.20
2023-02-27T00:37:10.460Z,2.10
2023-02-27T00:39:44.525Z,2.40
2023-02-27T00:42:18.497Z,2.17
2023-02-27T00:44:52.429Z,2.50
2023-02-27T00:47:26.044Z,2.50
2023-02-27T00:49:59.714Z,2.30
2023-02-27T00:52:35.253Z,2.30
2023-02-27T00:55:10.705Z,2.27
2023-02-27T00:57:44.677Z,2.87
2023-02-27T01:00:19.508Z,2.50
2023-02-27T01:02:54.067Z,2.70
2023-02-27T01:05:28.522Z,2.27
2023-02-27T01:08:04.247Z,1.77
2023-02-27T01:10:38.483Z,2.20
2023-02-27T01:13:12.432Z,2.43
2023-02-27T01:15:46.386Z,2.20
2023-02-27T01:18:20.250Z,2.00
2023-02-27T01:20:54.963Z,2.10
2023-02-27T01:23:30.685Z,2.10
2023-02-27T01:26:04.614Z,2.37
2023-02-27T01:28:39.976Z,2.40
2023-02-27T01:31:15.026Z,2.10
2023-02-27T01:33:49.445Z,2.10
2023-02-27T01:36:23.513Z,1.90
2023-02-27T01:38:59.265Z,2.40
2023-02-27T01:41:33.616Z,2.17
2023-02-27T01:44:10.371Z,2.10
2023-02-27T01:46:43.930Z,2.30
2023-02-27T01:49:26.320Z,2.17
2023-02-27T01:52:06.845Z,2.23
2023-02-27T01:54:44.429Z,2.17
2023-02-27T01:57:18.359Z,1.90
2023-02-27T01:59:52.497Z,1.80
2023-02-27T02:02:34.905Z,2.27
2023-02-27T02:05:10.350Z,2.17
2023-02-27T02:07:46.835Z,2.20
2023-02-27T02:10:23.114Z,2.30
2023-02-27T02:12:57.500Z,2.03
2023-02-27T02:15:39.360Z,2.20
2023-02-27T02:18:25.733Z,2.10
2023-02-27T02:21:43.948Z,1.93
2023-02-27T02:25:05.450Z,1.70
2023-02-27T02:28:07.927Z,1.90
2023-02-27T02:31:21.773Z,2.10
2023-02-27T02:34:50.306Z,2.03
2023-02-27T02:38:26.690Z,1.87
2023-02-27T02:41:12.788Z,1.90
2023-02-27T02:44:05.347Z,2.07
2023-02-27T02:46:49.038Z,2.17
2023-02-27T02:49:34.655Z,2.40
2023-02-27T02:52:18.173Z,1.90
2023-02-27T02:55:02.752Z,2.10
2023-02-27T02:57:45.128Z,2.20
2023-02-27T03:00:24.133Z,1.93
2023-02-27T03:03:03.352Z,1.97
2023-02-27T03:05:45.828Z,2.20
2023-02-27T03:08:27.358Z,2.20
2023-02-27T03:11:05.229Z,2.30
2023-02-27T03:13:51.741Z,2.13
2023-02-27T03:16:33.500Z,2.37
2023-02-27T03:19:15.776Z,2.20
2023-02-27T03:21:56.682Z,2.00
2023-02-27T03:24:36.901Z,2.20
2023-02-27T03:27:11.950Z,1.90
2023-02-27T03:29:55.174Z,2.13
2023-02-27T03:32:38.029Z,2.20
2023-02-27T03:35:13.254Z,2.70
2023-02-27T03:38:00.549Z,2.50
2023-02-27T03:40:40.330Z,2.43
2023-02-27T03:43:25.241Z,3.27
2023-02-27T03:46:08.971Z,2.80
2023-02-27T03:48:44.860Z,3.03
2023-02-27T03:51:23.314Z,3.40
2023-02-27T03:54:04.685Z,2.47
2023-02-27T03:56:43.796Z,2.83
2023-02-27T03:59:18.242Z,2.67
2023-02-27T04:01:54.714Z,2.90
2023-02-27T04:04:33.011Z,2.70
2023-02-27T04:07:26.582Z,2.63
2023-02-27T04:10:24.824Z,2.60
2023-02-27T04:13:25.083Z,2.57
2023-02-27T04:16:35.037Z,2.17
2023-02-27T04:19:27.264Z,2.30
2023-02-27T04:22:19.809Z,2.47
2023-02-27T04:25:07.016Z,2.00
2023-02-27T04:27:53.270Z,2.43
2023-02-27T04:30:34.739Z,2.30
2023-02-27T04:33:14.574Z,2.17
2023-02-27T04:35:56.191Z,2.10
2023-02-27T04:38:37.013Z,2.20
2023-02-27T04:41:17.789Z,2.90
2023-02-27T04:43:54.271Z,2.30
2023-02-27T04:46:31.723Z,2.40
2023-02-27T04:49:11.815Z,2.10
2023-02-27T04:51:55.977Z,2.50
2023-02-27T04:54:36.404Z,2.57
2023-02-27T04:57:19.196Z,2.60
2023-02-27T04:59:59.505Z,2.90
2023-02-27T05:02:39.449Z,3.00
2023-02-27T05:05:20.767Z,2.80
2023-02-27T05:08:01.110Z,3.00
2023-02-27T05:10:42.158Z,2.27
2023-02-27T05:13:22.196Z,2.50
2023-02-27T05:16:07.642Z,2.73
2023-02-27T05:18:51.565Z,2.73
2023-02-27T05:21:32.723Z,3.73
2023-02-27T05:24:21.110Z,3.20
2023-02-27T05:27:17.488Z,3.07
2023-02-27T05:29:55.689Z,3.10
2023-02-27T05:32:42.608Z,2.83
2023-02-27T05:35:28.032Z,3.10
2023-02-27T05:38:10.347Z,3.03
2023-02-27T05:40:51.212Z,2.90
2023-02-27T05:43:30.994Z,2.97
2023-02-27T05:46:11.739Z,3.13
2023-02-27T05:48:54.283Z,2.50
2023-02-27T05:51:34.977Z,2.40
2023-02-27T05:54:17.348Z,2.40
2023-02-27T05:56:58.910Z,2.53
2023-02-27T05:59:43.667Z,2.20
2023-02-27T06:02:18.369Z,2.87
2023-02-27T06:04:52.289Z,2.37
2023-02-27T06:07:27.260Z,2.60
2023-02-27T06:10:01.196Z,2.70
2023-02-27T06:12:36.573Z,2.77
2023-02-27T06:15:11.954Z,3.50
2023-02-27T06:17:45.921Z,3.80
2023-02-27T06:20:20.326Z,3.10
2023-02-27T06:22:54.302Z,3.57
2023-02-27T06:25:28.413Z,3.53
2023-02-27T06:28:03.954Z,3.60
2023-02-27T06:30:38.731Z,3.70
2023-02-27T06:33:12.801Z,3.20
2023-02-27T06:35:49.873Z,3.80
2023-02-27T06:38:23.963Z,3.47
2023-02-27T06:40:57.725Z,3.80
2023-02-27T06:43:34.938Z,3.10
2023-02-27T06:46:09.247Z,3.17
2023-02-27T06:48:42.796Z,3.23
2023-02-27T06:51:16.507Z,3.47
2023-02-27T06:53:50.565Z,2.90
2023-02-27T06:56:24.765Z,3.30
2023-02-27T06:59:00.304Z,2.67
2023-02-27T07:01:34.381Z,3.07
2023-02-27T07:04:08.700Z,2.90
2023-02-27T07:07:34.500Z,3.13
2023-02-27T07:09:37.532Z,3.10
2023-02-27T07:12:11.273Z,3.30
2023-02-27T07:14:46.968Z,3.00
2023-02-27T07:17:20.930Z,3.93
2023-02-27T07:19:54.690Z,3.40
2023-02-27T07:22:29.491Z,3.07
2023-02-27T07:25:03.273Z,2.50
2023-02-27T07:27:37.287Z,2.53
2023-02-27T07:30:14.726Z,2.90
2023-02-27T07:32:50.962Z,2.70
2023-02-27T07:35:24.487Z,2.83
2023-02-27T07:37:58.025Z,3.07
2023-02-27T07:40:32.126Z,2.93
2023-02-27T07:43:05.828Z,2.67
2023-02-27T07:45:41.065Z,2.63
2023-02-27T07:48:14.763Z,3.10
2023-02-27T07:50:50.830Z,2.80
2023-02-27T07:53:24.744Z,2.80
2023-02-27T07:55:59.846Z,2.80
2023-02-27T07:58:33.846Z,2.70
2023-02-27T08:01:19.003Z,2.60
2023-02-27T08:03:52.508Z,2.70
2023-02-27T08:06:27.309Z,2.63
2023-02-27T08:09:01.480Z,2.50
2023-02-27T08:11:35.457Z,2.47
2023-02-27T08:14:09.392Z,2.50
2023-02-27T08:16:45.330Z,2.53
2023-02-27T08:19:19.020Z,2.70
2023-02-27T08:21:53.082Z,2.30
2023-02-27T08:24:27.224Z,2.73
2023-02-27T08:27:01.001Z,2.67
2023-02-27T08:29:35.291Z,2.13
2023-02-27T08:32:12.040Z,2.40
2023-02-27T08:34:45.721Z,2.60
2023-02-27T08:37:19.068Z,2.33
2023-02-27T08:39:53.059Z,2.53
2023-02-27T08:42:27.053Z,2.40
2023-02-27T08:45:00.710Z,2.27
2023-02-27T08:47:36.142Z,2.53
2023-02-27T08:50:12.481Z,2.70
2023-02-27T08:52:46.267Z,2.60
2023-02-27T08:55:21.511Z,2.73
2023-02-27T08:57:57.305Z,4.03
2023-02-27T09:00:32.891Z,3.23
2023-02-27T09:03:08.054Z,2.73
2023-02-27T09:05:43.432Z,2.87
2023-02-27T09:08:20.239Z,2.47
2023-02-27T09:10:58.375Z,2.60
2023-02-27T09:13:32.692Z,3.37
2023-02-27T09:16:08.325Z,4.40
2023-02-27T09:18:43.756Z,3.17
2023-02-27T09:21:17.924Z,3.90
2023-02-27T09:23:52.014Z,3.50
2023-02-27T09:26:40.373Z,4.00
2023-02-27T09:29:17.348Z,2.37
2023-02-27T09:31:52.296Z,2.23
2023-02-27T09:34:27.795Z,2.53
2023-02-27T09:37:02.350Z,2.00
2023-02-27T09:39:36.651Z,2.23
2023-02-27T09:42:19.354Z,2.00
2023-02-27T09:44:56.931Z,2.03
2023-02-27T09:47:37.540Z,2.03
2023-02-27T09:50:37.977Z,1.70
2023-02-27T09:53:27.972Z,1.67
2023-02-27T09:56:09.662Z,1.73
2023-02-27T09:58:52.655Z,1.90
2023-02-27T10:01:32.435Z,1.70
2023-02-27T10:04:33.230Z,1.83
2023-02-27T10:07:18.107Z,1.90
2023-02-27T10:10:06.258Z,1.60
2023-02-27T10:12:56.946Z,1.27
2023-02-27T10:15:35.548Z,1.30
2023-02-27T10:18:26.820Z,1.37
2023-02-27T10:21:08.074Z,1.60
2023-02-27T10:23:50.779Z,1.77
2023-02-27T10:26:30.412Z,2.07
2023-02-27T10:29:16.853Z,1.80
2023-02-27T10:32:02.155Z,1.93
2023-02-27T10:34:39.164Z,1.87
2023-02-27T10:37:18.733Z,1.80
2023-02-27T10:39:58.026Z,1.90
2023-02-27T10:42:36.678Z,1.70
2023-02-27T10:45:16.087Z,1.97
2023-02-27T10:47:50.000Z,1.50
2023-02-27T10:50:29.573Z,1.67
2023-02-27T10:53:07.855Z,1.40
2023-02-27T10:55:44.354Z,1.70
2023-02-27T10:58:22.042Z,1.43
2023-02-27T11:00:59.496Z,1.77
2023-02-27T11:03:41.142Z,1.90
2023-02-27T11:06:25.925Z,1.57
2023-02-27T11:09:23.526Z,1.70
2023-02-27T11:12:13.367Z,1.40
2023-02-27T11:14:54.386Z,1.37
2023-02-27T11:17:32.424Z,1.60
2023-02-27T11:20:27.500Z,1.43
2023-02-27T11:23:07.960Z,1.50
2023-02-27T11:25:43.569Z,1.70
2023-02-27T11:28:26.745Z,1.67
2023-02-27T11:31:05.998Z,2.10
2023-02-27T11:33:49.784Z,1.30
2023-02-27T11:36:24.944Z,1.67
2023-02-27T11:38:58.885Z,1.43
2023-02-27T11:41:35.988Z,1.53
2023-02-27T11:44:25.748Z,1.70
2023-02-27T11:47:18.902Z,1.60
2023-02-27T11:50:43.172Z,1.60
2023-02-27T11:53:44.521Z,1.70
2023-02-27T11:56:25.241Z,1.80
2023-02-27T11:59:06.485Z,1.60
2023-02-27T12:01:50.764Z,1.40
2023-02-27T12:04:31.512Z,1.67
2023-02-27T12:07:15.521Z,1.77
2023-02-27T12:10:03.606Z,1.37
2023-02-27T12:12:46.582Z,1.80
2023-02-27T12:15:31.010Z,1.67
2023-02-27T12:18:18.760Z,1.37
2023-02-27T12:20:59.364Z,1.50
2023-02-27T12:23:43.257Z,1.77
2023-02-27T12:26:27.517Z,1.40
2023-02-27T12:29:10.838Z,1.20
2023-02-27T12:31:53.903Z,1.57
2023-02-27T12:34:39.892Z,1.30
2023-02-27T12:37:16.414Z,1.40
2023-02-27T12:39:50.630Z,2.03
2023-02-27T12:43:18.348Z,1.17
2023-02-27T12:46:19.317Z,1.20
2023-02-27T12:49:23.206Z,1.70
2023-02-27T12:52:14.298Z,1.40
2023-02-27T12:54:59.687Z,1.50
2023-02-27T12:58:01.291Z,1.50
2023-02-27T13:00:47.661Z,1.50
2023-02-27T13:03:29.871Z,1.40
2023-02-27T13:06:20.438Z,1.37
2023-02-27T13:09:21.678Z,1.13
2023-02-27T13:12:05.098Z,1.57
2023-02-27T13:14:50.887Z,1.40
2023-02-27T13:17:32.762Z,1.43
2023-02-27T13:20:28.617Z,1.30
2023-02-27T13:23:17.621Z,1.40
2023-02-27T13:25:57.634Z,1.60
2023-02-27T13:28:32.736Z,1.60
2023-02-27T13:31:15.583Z,1.60
2023-02-27T13:34:00.973Z,1.60
2023-02-27T13:36:43.916Z,1.53
2023-02-27T13:39:56.026Z,1.40
2023-02-27T13:42:59.217Z,1.30
2023-02-27T13:45:57.408Z,1.87
2023-02-27T13:48:55.348Z,1.87
2023-02-27T13:51:48.862Z,1.77
2023-02-27T13:54:28.254Z,1.87
2023-02-27T13:57:24.069Z,2.67
2023-02-27T14:00:05.067Z,1.83
2023-02-27T14:02:59.783Z,1.80
2023-02-27T14:05:39.446Z,1.60
2023-02-27T14:08:21.100Z,1.70
2023-02-27T14:11:02.792Z,1.60
2023-02-27T14:14:06.609Z,1.57
2023-02-27T14:17:03.653Z,1.77
2023-02-27T14:20:01.355Z,2.10
2023-02-27T14:23:18.990Z,1.60
2023-02-27T14:25:56.784Z,1.97
2023-02-27T14:28:36.317Z,1.67
2023-02-27T14:31:24.354Z,1.70
2023-02-27T14:34:05.306Z,1.93
2023-02-27T14:36:47.912Z,1.57
2023-02-27T14:39:25.987Z,1.73
2023-02-27T14:42:16.169Z,1.60
2023-02-27T14:44:52.396Z,1.53
2023-02-27T14:47:32.635Z,1.70
2023-02-27T14:50:27.035Z,1.90
2023-02-27T14:53:01.934Z,1.90
2023-02-27T14:55:39.445Z,1.53
2023-02-27T14:58:21.885Z,1.60
2023-02-27T15:01:09.998Z,1.60
2023-02-27T15:03:51.171Z,1.40
2023-02-27T15:06:36.922Z,1.50
2023-02-27T15:09:22.395Z,1.50
2023-02-27T15:12:03.921Z,1.40
2023-02-27T15:14:41.555Z,1.47
2023-02-27T15:17:22.052Z,1.40
2023-02-27T15:19:58.832Z,1.60
2023-02-27T15:22:40.230Z,1.80
2023-02-27T15:25:31.145Z,1.93
2023-02-27T15:28:08.696Z,2.07
2023-02-27T15:30:43.170Z,2.37
2023-02-27T15:33:18.920Z,1.70
2023-02-27T15:35:53.683Z,1.67
2023-02-27T15:38:36.742Z,1.70
2023-02-27T15:41:14.807Z,1.30
2023-02-27T15:43:48.878Z,1.30
2023-02-27T15:46:23.335Z,1.60
2023-02-27T15:48:57.658Z,1.50
2023-02-27T15:51:32.008Z,1.53
2023-02-27T15:54:09.765Z,1.17
2023-02-27T15:56:44.459Z,1.50
2023-02-27T15:59:20.595Z,1.60
2023-02-27T16:01:55.907Z,1.50
2023-02-27T16:04:31.402Z,1.20
2023-02-27T16:07:14.958Z,1.60
2023-02-27T16:09:56.296Z,1.20
2023-02-27T16:12:34.201Z,1.30
2023-02-27T16:15:28.662Z,1.40
2023-02-27T16:18:06.798Z,1.50
2023-02-27T16:20:47.670Z,1.30
2023-02-27T16:23:27.802Z,1.43
2023-02-27T16:26:08.520Z,1.20
2023-02-27T16:28:51.944Z,1.17
2023-02-27T16:31:30.218Z,1.30
2023-02-27T16:34:16.451Z,1.23
2023-02-27T16:36:57.657Z,1.10
2023-02-27T16:39:32.142Z,1.30
2023-02-27T16:42:06.949Z,1.00
2023-02-27T16:44:40.876Z,1.20
2023-02-27T16:47:14.860Z,1.37
2023-02-27T16:49:49.639Z,1.07
2023-02-27T16:52:23.987Z,1.23
2023-02-27T16:54:57.783Z,1.20
2023-02-27T16:57:32.827Z,1.30
2023-02-27T17:00:09.113Z,1.23
2023-02-27T17:02:44.631Z,1.40
2023-02-27T17:05:19.223Z,1.30
2023-02-27T17:07:53.327Z,1.57
2023-02-27T17:10:27.485Z,1.13
2023-02-27T17:13:02.779Z,1.50
2023-02-27T17:15:36.604Z,1.53
2023-02-27T17:18:10.617Z,1.23
2023-02-27T17:20:44.507Z,1.40
2023-02-27T17:23:18.832Z,1.40
2023-02-27T17:25:54.896Z,1.37
2023-02-27T17:28:29.900Z,1.37
2023-02-27T17:31:08.513Z,1.77
2023-02-27T17:33:43.726Z,1.30
2023-02-27T17:36:17.522Z,1.57
2023-02-27T17:38:57.242Z,1.60
2023-02-27T17:41:32.794Z,1.60
2023-02-27T17:44:11.843Z,2.00
2023-02-27T17:46:45.599Z,1.47
2023-02-27T17:49:19.701Z,1.60
2023-02-27T17:51:53.460Z,1.53
2023-02-27T17:54:27.116Z,2.00
2023-02-27T17:57:07.117Z,2.00
2023-02-27T17:59:43.383Z,2.00
2023-02-27T18:02:17.599Z,1.57
2023-02-27T18:04:51.786Z,1.63
2023-02-27T18:07:25.554Z,1.37
2023-02-27T18:09:59.514Z,2.27
2023-02-27T18:12:33.455Z,1.80
2023-02-27T18:15:10.741Z,1.80
2023-02-27T18:17:45.470Z,1.73
2023-02-27T18:20:21.201Z,1.77
2023-02-27T18:22:55.123Z,2.00
2023-02-27T18:25:30.129Z,2.23
2023-02-27T18:28:03.913Z,1.60
2023-02-27T18:30:40.678Z,2.10
2023-02-27T18:33:14.756Z,2.10
2023-02-27T18:35:49.059Z,2.17
2023-02-27T18:38:22.724Z,1.90
2023-02-27T18:40:56.612Z,1.97
2023-02-27T18:43:30.293Z,2.00
2023-02-27T18:46:06.513Z,2.10
2023-02-27T18:48:40.561Z,1.90
2023-02-27T18:51:17.476Z,1.70
2023-02-27T18:53:52.411Z,1.80
2023-02-27T18:56:28.195Z,2.00
2023-02-27T18:59:05.328Z,2.07
2023-02-27T19:01:40.429Z,2.13
2023-02-27T19:04:14.217Z,2.57
2023-02-27T19:06:47.929Z,2.33
2023-02-27T19:09:22.711Z,2.20
2023-02-27T19:11:57.887Z,2.60
2023-02-27T19:14:31.607Z,1.83
2023-02-27T19:17:07.519Z,2.30
2023-02-27T19:19:42.474Z,2.37
2023-02-27T19:22:16.544Z,2.40
2023-02-27T19:24:51.341Z,2.40
2023-02-27T19:27:25.128Z,2.33
2023-02-27T19:30:01.499Z,2.37
2023-02-27T19:32:38.058Z,2.30
2023-02-27T19:35:15.139Z,2.43
2023-02-27T19:37:56.399Z,2.40
2023-02-27T19:40:30.303Z,2.20
2023-02-27T19:43:04.482Z,2.43
2023-02-27T19:45:43.084Z,2.50
2023-02-27T19:48:20.041Z,2.43
2023-02-27T19:50:53.859Z,2.63
2023-02-27T19:53:28.098Z,2.03
2023-02-27T19:56:03.818Z,2.60
2023-02-27T19:58:39.491Z,2.67
2023-02-27T20:01:13.501Z,2.40
2023-02-27T20:03:50.044Z,2.50
2023-02-27T20:06:27.204Z,2.90
2023-02-27T20:09:02.028Z,2.67
2023-02-27T20:11:35.886Z,2.40
2023-02-27T20:14:10.632Z,2.30
2023-02-27T20:16:44.326Z,2.53
2023-02-27T20:19:20.935Z,2.53
2023-02-27T20:21:56.953Z,2.47
2023-02-27T20:24:30.739Z,3.30
2023-02-27T20:27:04.234Z,3.70
2023-02-27T20:29:38.188Z,2.93
2023-02-27T20:32:12.123Z,3.10
2023-02-27T20:34:49.674Z,3.30
2023-02-27T20:37:24.599Z,3.03
2023-02-27T20:39:58.666Z,3.07
2023-02-27T20:42:32.640Z,2.57
2023-02-27T20:45:07.806Z,2.70
2023-02-27T20:47:41.362Z,2.60
2023-02-27T20:50:16.866Z,2.60
2023-02-27T20:52:55.829Z,2.87
2023-02-27T20:55:29.696Z,2.63
2023-02-27T20:58:03.407Z,3.33
2023-02-27T21:00:37.192Z,3.27
2023-02-27T21:03:10.907Z,4.00
2023-02-27T21:05:50.946Z,4.20
2023-02-27T21:08:24.767Z,5.20
2023-02-27T21:11:01.070Z,6.07
2023-02-27T21:13:36.283Z,6.87
2023-02-27T21:16:12.359Z,6.20
2023-02-27T21:18:47.001Z,6.17
2023-02-27T21:21:27.432Z,5.37
2023-02-27T21:24:03.802Z,4.50
2023-02-27T21:26:40.920Z,4.90
2023-02-27T21:29:18.221Z,4.10
2023-02-27T21:31:53.425Z,4.30
2023-02-27T21:34:30.960Z,3.87
2023-02-27T21:37:07.425Z,4.33
2023-02-27T21:39:41.416Z,3.87
2023-02-27T21:42:14.898Z,3.63
2023-02-27T21:44:49.051Z,3.70
2023-02-27T21:47:22.815Z,2.97
2023-02-27T21:49:57.245Z,3.47
2023-02-27T21:52:34.152Z,2.47
2023-02-27T21:55:09.787Z,3.20
2023-02-27T21:57:43.671Z,3.10
2023-02-27T22:00:18.679Z,3.23
2023-02-27T22:02:52.481Z,3.10
2023-02-27T22:05:25.876Z,3.47
2023-02-27T22:08:01.012Z,3.50
2023-02-27T22:10:42.956Z,3.33
2023-02-27T22:13:17.774Z,3.20
2023-02-27T22:15:51.619Z,3.37
2023-02-27T22:18:26.390Z,3.93
2023-02-27T22:21:01.599Z,3.53
2023-02-27T22:23:36.884Z,3.20
2023-02-27T22:26:15.479Z,3.47
2023-02-27T22:28:49.408Z,4.00
2023-02-27T22:31:25.455Z,3.33
2023-02-27T22:34:03.770Z,3.33
2023-02-27T22:36:37.893Z,3.37
2023-02-27T22:39:15.771Z,3.23
2023-02-27T22:41:49.902Z,2.87
2023-02-27T22:44:23.786Z,2.63
2023-02-27T22:46:58.006Z,2.63
2023-02-27T22:49:31.740Z,3.20
2023-02-27T22:52:06.108Z,2.47
2023-02-27T22:54:41.760Z,2.80
2023-02-27T22:57:17.844Z,2.60
2023-02-27T22:59:52.149Z,3.13
2023-02-27T23:02:25.888Z,3.07
2023-02-27T23:04:59.579Z,3.23
2023-02-27T23:07:33.780Z,3.90
2023-02-27T23:10:13.147Z,3.53
2023-02-27T23:12:46.980Z,3.93
2023-02-27T23:15:20.771Z,3.27
2023-02-27T23:17:58.409Z,3.37
2023-02-27T23:20:32.621Z,3.70
2023-02-27T23:23:06.671Z,3.77
2023-02-27T23:25:42.028Z,3.90
2023-02-27T23:28:15.985Z,3.20
2023-02-27T23:30:50.941Z,3.10
2023-02-27T23:33:24.772Z,2.77
2023-02-27T23:35:59.580Z,2.60
2023-02-27T23:38:33.289Z,2.33
2023-02-27T23:41:11.038Z,2.67
2023-02-27T23:43:46.137Z,2.23
2023-02-27T23:46:20.618Z,2.50
2023-02-27T23:48:54.455Z,2.33
2023-02-27T23:51:30.472Z,2.23
2023-02-27T23:54:04.965Z,2.30
2023-02-27T23:56:40.600Z,2.70
2023-02-27T23:59:14.370Z,2.27
